Time;durP1;ratioP1;P1;durP2;ratioP2;P2;SDS_P1;SDS_P2;PMS_P1;PMS_P2;Temp;Humidity;BMP_temperature;BMP_pressure;BME280_temperature;BME280_humidity;BME280_pressure;Samples;Min_cycle;Max_cycle;Signal;HPM_P1;HPM_P2
2022/07/27 00:01:16;;;;;;;11.30;2.60;;;19.60;99.90;;;19.96;96.81;100351.06;5004106;28;20204;-75
2022/07/27 00:03:45;;;;;;;8.75;2.20;;;;;;;19.92;96.48;100346.72;5004345;28;20232;-75
2022/07/27 00:06:14;;;;;;;7.60;1.70;;;;;;;19.98;96.35;100360.81;5006439;28;20207;-75
2022/07/27 00:08:42;;;;;;;12.25;2.67;;;;;;;19.93;96.85;100361.88;4989640;28;20258;-75
2022/07/27 00:11:12;;;;;;;11.55;2.63;;;;;;;19.84;96.09;100349.63;5006236;28;20215;-75
2022/07/27 00:13:40;;;;;;;5.55;1.35;;;;;;;19.88;95.21;100353.97;4987167;28;20227;-74
2022/07/27 00:16:08;;;;;;;11.13;2.50;;;;;;;19.81;94.96;100349.72;5004276;28;20218;-77
2022/07/27 00:18:37;;;;;;;10.23;2.15;;;;;;;19.87;94.48;100354.03;5003957;28;20239;-83
2022/07/27 00:21:06;;;;;;;11.75;2.38;;;;;;;19.82;94.39;100356.84;5005185;28;20208;-82
2022/07/27 00:23:34;;;;;;;9.10;2.10;;;;;;;19.74;94.62;100351.72;5003990;28;20239;-80
2022/07/27 00:26:03;;;;;;;16.52;3.55;;;;;;;19.78;94.57;100348.00;5004942;28;20223;-81
2022/07/27 00:28:31;;;;;;;8.45;1.90;;;;;;;19.75;93.81;100350.78;5003589;28;20600;-78
2022/07/27 00:30:59;;;;;;;9.65;2.13;;;;;;;19.65;93.53;100335.88;5004952;28;20211;-76
2022/07/27 00:33:28;;;;;;;11.77;2.58;;;;;;;19.70;93.27;100333.94;5003875;28;20688;-77
2022/07/27 00:35:56;;;;;;;6.07;1.35;;;;;;;19.79;92.93;100338.16;5003584;28;20219;-76
2022/07/27 00:38:24;;;;;;;12.98;2.60;;;;;;;19.77;92.75;100340.88;5004071;28;20227;-78
2022/07/27 00:40:52;;;;;;;16.80;3.25;;;;;;;19.76;92.70;100339.13;5008926;28;20207;-79
2022/07/27 00:43:21;;;;;;;12.98;2.60;;;19.40;99.90;;;19.77;92.52;100342.69;4988039;28;20235;-77
2022/07/27 00:45:51;;;;;;;12.63;2.50;;;;;;;19.79;92.61;100344.41;5005107;28;20215;-81
2022/07/27 00:48:19;;;;;;;12.55;2.55;;;;;;;19.78;92.33;100357.88;5004828;28;20203;-81
2022/07/27 00:50:47;;;;;;;14.70;2.97;;;;;;;19.76;91.72;100362.41;5002557;28;20215;-79
2022/07/27 00:53:16;;;;;;;11.75;2.47;;;;;;;19.78;92.07;100364.13;4985875;28;20219;-76
2022/07/27 00:55:44;;;;;;;11.07;2.28;;;;;;;19.81;92.08;100376.56;5005278;28;20215;-79
2022/07/27 00:58:13;;;;;;;12.48;2.55;;;;;;;19.75;91.32;100360.63;5002245;28;20704;-79
2022/07/27 01:00:41;;;;;;;12.30;2.50;;;;;;;19.70;91.08;100355.41;5005017;28;20215;-80
2022/07/27 01:03:09;;;;;;;11.30;2.25;;;;;;;19.75;90.92;100352.59;5003769;28;20227;-75
2022/07/27 01:05:39;;;;;;;12.95;2.60;;;;;;;19.72;91.04;100347.31;4979007;28;20235;-79
2022/07/27 01:08:12;;;;;;;10.27;2.20;;;19.40;99.90;;;19.75;91.03;100357.97;4999508;28;20215;-76
2022/07/27 01:10:42;;;;;;;8.80;1.77;;;19.40;99.90;;;19.79;90.82;100348.88;4990648;28;20219;-75
2022/07/27 01:13:11;;;;;;;12.43;2.67;;;;;;;19.75;91.57;100358.84;5002638;28;20227;-83
2022/07/27 01:15:41;;;;;;;7.78;1.70;;;19.40;99.90;;;19.73;91.01;100352.63;4987482;28;20215;-78
2022/07/27 01:18:45;;;;;;;10.07;2.15;;;19.40;99.90;;;19.70;91.28;100349.16;5004499;28;20572;-75
2022/07/27 01:21:13;;;;;;;11.27;2.28;;;;;;;19.72;91.04;100364.28;5004063;28;20219;-74
2022/07/27 01:23:41;;;;;;;12.07;2.50;;;;;;;19.68;91.68;100364.44;5004367;28;20219;-81
2022/07/27 01:26:09;;;;;;;13.73;2.97;;;;;;;19.70;91.80;100378.69;4985701;28;20660;-82
2022/07/27 01:28:41;;;;;;;6.57;1.45;;;;;;;19.58;91.30;100361.13;5004696;28;20204;-80
2022/07/27 01:31:09;;;;;;;11.15;2.40;;;;;;;19.60;91.86;100359.28;4986562;28;20211;-79
2022/07/27 01:33:37;;;;;;;14.10;2.97;;;;;;;19.70;91.34;100373.31;5002402;28;20235;-81
2022/07/27 01:36:06;;;;;;;11.93;2.65;;;;;;;19.68;91.76;100373.34;5003653;28;20208;-77
2022/07/27 01:38:34;;;;;;;9.82;2.13;;;;;;;19.59;91.56;100364.69;4988403;28;20232;-75
2022/07/27 01:41:02;;;;;;;10.60;2.30;;;;;;;19.61;92.06;100369.09;5003967;28;20205;-75
2022/07/27 01:43:30;;;;;;;13.52;2.88;;;;;;;19.56;92.81;100378.19;5002453;28;20229;-74
2022/07/27 01:45:59;;;;;;;8.98;1.98;;;;;;;19.53;92.39;100379.16;5006066;28;20204;-74
2022/07/27 01:48:27;;;;;;;10.98;2.40;;;;;;;19.59;93.19;100387.03;5007910;28;20204;-80
2022/07/27 01:50:56;;;;;;;7.15;1.60;;;;;;;19.52;92.27;100379.19;5007171;28;20207;-80
2022/07/27 01:53:24;;;;;;;11.95;2.58;;;;;;;19.53;92.43;100380.97;5007723;28;20224;-78
2022/07/27 01:55:52;;;;;;;8.50;1.80;;;;;;;19.50;92.19;100377.41;5007379;28;20204;-81
2022/07/27 01:58:21;;;;;;;7.78;1.77;;;;;;;19.53;92.20;100380.97;5006029;28;20219;-77
2022/07/27 02:00:49;;;;;;;13.13;2.85;;;;;;;19.50;92.50;100379.19;5007996;28;20660;-75
2022/07/27 02:03:18;;;;;;;13.57;2.95;;;;;;;19.50;91.72;100380.09;5004826;28;20611;-75
2022/07/27 02:05:46;;;;;;;7.20;1.65;;;;;;;19.49;92.28;100383.66;5007619;28;20200;-79
2022/07/27 02:08:14;;;;;;;7.03;1.58;;;;;;;19.49;92.36;100383.66;4990884;28;20207;-78
2022/07/27 02:13:30;;;;;;;10.15;2.33;;;;;;;19.46;92.40;100377.50;5009918;28;20258;-77
2022/07/27 02:15:58;;;;;;;8.00;1.88;;;;;;;19.46;92.70;100378.41;5007927;28;20222;-76
2022/07/27 02:18:27;;;;;;;4.80;1.20;;;;;;;19.47;92.75;100390.00;5003671;28;20203;-76
2022/07/27 02:21:04;;;;;;;7.93;1.77;;;19.10;99.90;;;19.47;93.16;100388.19;5010060;28;20207;-80
2022/07/27 02:23:34;;;;;;;10.27;2.40;;;19.10;99.90;;;19.49;93.33;100402.44;4994544;28;20614;-75
2022/07/27 02:26:06;;;;;;;9.48;2.13;;;19.10;99.90;;;19.49;93.29;100399.75;5008468;28;20204;-77
2022/07/27 02:28:35;;;;;;;9.32;2.20;;;19.20;99.90;;;19.52;93.49;100408.69;5009830;28;20231;-76
2022/07/27 02:31:03;;;;;;;6.75;1.60;;;;;;;19.48;93.78;100415.91;5009379;28;20204;-79
2022/07/27 02:33:32;;;;;;;11.90;2.72;;;;;;;19.43;94.27;100407.09;5008807;28;20228;-75
2022/07/27 02:36:00;;;;;;;8.90;2.00;;;;;;;19.40;94.02;100415.22;5006089;28;20215;-81
2022/07/27 02:38:28;;;;;;;9.52;2.15;;;;;;;19.40;94.28;100417.91;5010139;28;20203;-78
2022/07/27 02:40:57;;;;;;;9.02;2.00;;;;;;;19.34;95.01;100416.28;5005609;28;20232;-78
2022/07/27 02:43:25;;;;;;;6.93;1.60;;;;;;;19.32;94.78;100423.47;4991559;28;20220;-79
2022/07/27 02:45:53;;;;;;;9.32;2.10;;;;;;;19.37;94.72;100428.72;5005864;28;20214;-78
2022/07/27 02:48:22;;;;;;;8.32;1.92;;;;;;;19.32;94.96;100420.81;5008244;28;20204;-79
2022/07/27 02:50:50;;;;;;;5.97;1.35;;;;;;;19.34;94.78;100427.00;5010178;28;20200;-77
2022/07/27 02:53:18;;;;;;;8.57;1.92;;;;;;;19.29;95.56;100434.28;5005020;28;20255;-76
2022/07/27 02:55:46;;;;;;;10.68;2.35;;;;;;;19.26;95.80;100439.75;5008936;28;20219;-75
2022/07/27 02:58:15;;;;;;;8.02;1.83;;;;;;;19.30;95.66;100440.53;5004885;28;20200;-75
2022/07/27 03:00:43;;;;;;;9.45;2.10;;;19.00;99.90;;;19.30;95.72;100451.25;5005015;28;20225;-75
2022/07/27 03:03:13;;;;;;;6.60;1.55;;;19.00;99.90;;;19.29;95.92;100454.88;5007765;28;20231;-77
2022/07/27 03:05:41;;;;;;;5.55;1.33;;;;;;;19.26;96.18;100458.50;5009926;28;20561;-74
2022/07/27 03:08:09;;;;;;;12.20;2.65;;;;;;;19.27;96.40;100462.94;5006602;28;20200;-75
2022/07/27 03:10:38;;;;;;;13.52;2.88;;;;;;;19.22;96.26;100467.53;4989350;28;20211;-75
2022/07/27 03:13:06;;;;;;;14.30;3.20;;;;;;;19.20;96.84;100469.38;5003019;28;20239;-76
2022/07/27 03:15:35;;;;;;;8.05;1.85;;;;;;;19.16;97.02;100471.28;5008903;28;20192;-77
2022/07/27 03:18:03;;;;;;;10.45;2.33;;;;;;;19.28;96.99;100488.84;5008640;28;20205;-77
2022/07/27 03:20:32;;;;;;;9.82;2.22;;;;;;;19.15;97.21;100469.50;5006886;28;20242;-78
2022/07/27 03:23:00;;;;;;;9.50;2.20;;;;;;;19.14;97.08;100481.16;5008961;28;20300;-76
2022/07/27 03:25:29;;;;;;;8.45;2.15;;;;;;;19.12;97.66;100485.66;5007791;28;20661;-77
2022/07/27 03:27:57;;;;;;;9.77;2.22;;;;;;;19.12;97.76;100496.41;5008266;28;20219;-75
2022/07/27 03:30:32;;;;;;;6.75;1.60;;;18.80;99.90;;;19.09;98.11;100495.59;5009812;28;20207;-78
2022/07/27 03:33:00;;;;;;;7.40;1.67;;;;;;;19.04;98.24;100501.06;4990335;28;20213;-80
2022/07/27 03:35:29;;;;;;;6.15;1.52;;;;;;;19.05;98.91;100502.81;5006962;28;20223;-77
2022/07/27 03:37:57;;;;;;;6.63;1.88;;;;;;;19.00;99.13;100501.19;4993853;28;20212;-78
2022/07/27 03:40:28;;;;;;;3.03;0.88;;;;;;;19.03;99.08;100512.69;4994975;28;20232;-75
2022/07/27 03:42:57;;;;;;;9.50;2.10;;;;;;;19.01;100.00;100529.75;5008743;28;20562;-74
2022/07/27 03:45:26;;;;;;;12.93;3.03;;;;;;;18.96;99.83;100518.25;5010326;28;20219;-78
2022/07/27 03:47:54;;;;;;;6.78;1.65;;;;;;;18.98;99.92;100522.66;5009247;28;20200;-75
2022/07/27 03:50:22;;;;;;;5.90;1.35;;;;;;;19.00;100.00;100536.03;5008160;28;20204;-79
2022/07/27 03:52:51;;;;;;;16.08;3.70;;;;;;;18.91;100.00;100534.44;5007490;28;20211;-75
2022/07/27 03:55:20;;;;;;;12.43;2.92;;;18.60;99.90;;;18.93;100.00;100543.31;5005144;28;20703;-77
2022/07/27 03:57:49;;;;;;;10.38;2.42;;;;;;;18.88;100.00;100541.66;5005623;28;20211;-78
2022/07/27 04:00:18;;;;;;;8.23;1.95;;;;;;;18.89;100.00;100536.28;5003537;28;20238;-78
2022/07/27 04:02:47;;;;;;;18.45;4.13;;;;;;;18.93;100.00;100542.44;4986372;28;20212;-76
2022/07/27 04:05:15;;;;;;;8.10;1.95;;;;;;;18.94;100.00;100541.53;5006890;28;20723;-75
2022/07/27 04:07:43;;;;;;;9.90;2.20;;;;;;;18.91;100.00;100549.63;5005699;28;20212;-76
2022/07/27 04:10:12;;;;;;;11.20;2.42;;;;;;;18.92;100.00;100556.75;4990094;28;20223;-75
2022/07/27 04:12:41;;;;;;;12.45;2.63;;;;;;;18.88;100.00;100560.44;5004190;28;20215;-80
2022/07/27 04:15:09;;;;;;;13.70;2.83;;;;;;;18.81;100.00;100560.56;5004777;28;20553;-78
2022/07/27 04:17:37;;;;;;;16.40;3.45;;;;;;;18.83;100.00;100569.44;5006826;28;20200;-77
2022/07/27 04:20:24;;;;;;;8.18;1.85;;;;;;;18.85;100.00;100574.78;5003542;28;20228;-76
2022/07/27 04:22:52;;;;;;;19.23;3.88;;;;;;;18.86;100.00;100581.91;5006704;28;20208;-77
2022/07/27 04:25:21;;;;;;;14.65;3.08;;;;;;;18.83;100.00;100590.88;5003921;28;20208;-78
2022/07/27 04:27:49;;;;;;;11.38;2.40;;;;;;;18.82;100.00;100593.59;4988435;28;20196;-75
2022/07/27 04:30:18;;;;;;;10.00;2.20;;;;;;;18.85;100.00;100596.22;5005980;28;20219;-76
2022/07/27 04:32:46;;;;;;;16.10;3.28;;;;;;;18.86;100.00;100597.97;5006281;28;20208;-76
2022/07/27 04:35:14;;;;;;;10.10;2.17;;;;;;;18.79;100.00;100613.31;4972089;28;20205;-79
2022/07/27 04:37:43;;;;;;;8.35;1.90;;;;;;;18.77;100.00;100608.91;4988966;28;20669;-81
2022/07/27 04:40:31;;;;;;;15.23;3.30;;;18.50;99.90;;;18.79;100.00;100615.97;5004631;28;20711;-76
2022/07/27 04:43:01;;;;;;;8.50;1.88;;;18.60;99.90;;;18.80;100.00;100617.75;4989134;28;20215;-76
2022/07/27 04:45:30;;;;;;;10.40;2.22;;;;;;;18.81;100.00;100622.19;5005604;28;20208;-77
2022/07/27 04:47:58;;;;;;;8.32;1.85;;;;;;;18.82;100.00;100629.31;4990056;28;20216;-77
2022/07/27 04:50:27;;;;;;;15.95;3.33;;;;;;;18.72;100.00;100619.72;5005243;28;20220;-76
2022/07/27 04:53:15;;;;;;;9.38;2.05;;;18.50;99.90;;;18.84;100.00;100637.31;5008137;28;20219;-76
2022/07/27 04:55:45;;;;;;;10.23;2.13;;;18.50;99.90;;;18.77;100.00;100620.50;5001557;28;20200;-76
2022/07/27 04:58:14;;;;;;;7.93;1.63;;;18.40;99.90;;;18.72;100.00;100626.88;4988312;28;20200;-76
2022/07/27 05:00:43;;;;;;;10.35;3.35;;;;;;;18.78;100.00;100646.38;5007671;28;20232;-77
2022/07/27 05:03:11;;;;;;;11.65;2.35;;;;;;;18.74;100.00;100646.47;5002925;28;20224;-76
2022/07/27 05:05:39;;;;;;;13.85;3.00;;;;;;;18.71;100.00;100646.53;5004657;28;20215;-77
2022/07/27 05:08:17;;;;;;;7.40;1.70;;;;;;;18.86;100.00;100664.97;5001360;28;20203;-75
2022/07/27 05:10:46;;;;;;;7.32;1.65;;;;;;;18.80;100.00;100668.66;5009752;28;20208;-75
2022/07/27 05:13:15;;;;;;;6.90;1.50;;;;;;;18.88;100.00;100689.06;5008876;28;20234;-77
2022/07/27 05:15:43;;;;;;;11.18;2.28;;;;;;;18.91;100.00;100689.88;5009540;28;20208;-75
2022/07/27 05:18:23;;;;;;;6.32;1.40;;;18.60;99.90;;;18.88;100.00;100687.25;5007500;28;20207;-77
2022/07/27 05:20:51;;;;;;;18.05;3.85;;;;;;;18.89;100.00;100697.06;5004409;28;20622;-76
2022/07/27 05:23:19;;;;;;;5.10;1.10;;;;;;;19.11;100.00;100727.84;5006458;28;20219;-75
2022/07/27 05:25:48;;;;;;;2.60;0.60;;;;;;;19.02;100.00;100719.13;5010677;28;20204;-75
2022/07/27 05:28:16;;;;;;;6.88;1.55;;;;;;;19.05;100.00;100727.97;5010665;28;20216;-77
2022/07/27 05:30:44;;;;;;;9.50;2.00;;;;;;;19.01;100.00;100720.91;5006644;28;20212;-81
2022/07/27 05:33:12;;;;;;;8.48;1.90;;;;;;;19.12;100.00;100734.97;5003559;28;20660;-77
2022/07/27 05:35:41;;;;;;;9.77;2.15;;;;;;;19.18;100.00;100745.56;5007656;28;20204;-77
2022/07/27 05:38:09;;;;;;;9.80;2.17;;;;;;;19.25;100.00;100737.41;5004955;28;20247;-82
2022/07/27 05:40:37;;;;;;;9.98;2.13;;;;;;;19.33;100.00;100755.09;4993826;28;20223;-78
2022/07/27 05:43:05;;;;;;;11.48;2.65;;;;;;;19.30;100.00;100752.47;5011327;28;20219;-78
2022/07/27 05:45:34;;;;;;;9.15;2.03;;;;;;;19.39;100.00;100754.94;4994071;28;20211;-77
2022/07/27 05:48:02;;;;;;;9.70;2.08;;;;;;;19.30;100.00;100746.22;5012032;28;20216;-77
2022/07/27 05:50:30;;;;;;;5.75;1.27;;;;;;;19.13;100.00;100726.03;5008736;28;20211;-75
2022/07/27 05:52:59;;;;;;;12.68;2.67;;;;;;;19.31;100.00;100746.19;5010603;28;20584;-75
2022/07/27 05:55:28;;;;;;;7.72;1.77;;;;;;;19.26;100.00;100741.84;5007369;28;20204;-79
2022/07/27 05:57:56;;;;;;;7.22;1.65;;;;;;;19.35;100.00;100749.69;5012457;28;20278;-82
2022/07/27 06:00:24;;;;;;;12.40;2.72;;;;;;;19.44;100.00;100762.91;4992937;28;20205;-80
2022/07/27 06:02:53;;;;;;;11.85;2.70;;;;;;;19.28;100.00;100737.34;5012530;28;20227;-76
2022/07/27 06:05:21;;;;;;;7.78;1.83;;;;;;;19.43;100.00;100758.44;5013445;28;20200;-77
2022/07/27 06:07:58;;;;;;;7.88;1.83;;;;;;;19.28;100.00;100745.38;4993894;28;20212;-75
2022/07/27 06:10:29;;;;;;;8.23;1.88;;;19.00;99.90;;;19.29;100.00;100747.13;5010681;28;20208;-74
2022/07/27 06:12:58;;;;;;;11.57;2.70;;;;;;;19.37;100.00;100758.59;4993738;28;20203;-76
2022/07/27 06:15:26;;;;;;;5.88;1.38;;;;;;;19.13;100.00;100746.59;5011948;28;20620;-76
2022/07/27 06:17:54;;;;;;;7.32;1.73;;;;;;;19.43;100.00;100770.06;5009330;28;20231;-80
2022/07/27 06:20:24;;;;;;;6.25;1.50;;;19.00;99.90;;;19.24;100.00;100762.44;5010877;28;20207;-79
2022/07/27 06:22:56;;;;;;;14.02;3.15;;;18.90;99.90;;;19.15;100.00;100751.00;5015058;28;20227;-76
2022/07/27 06:25:28;;;;;;;11.27;2.67;;;19.00;99.90;;;19.25;100.00;100754.38;5012145;28;20684;-79
2022/07/27 06:28:05;;;;;;;8.23;2.00;;;19.00;99.90;;;19.38;100.00;100773.75;5011156;28;20299;-84
2022/07/27 06:30:34;;;;;;;11.13;2.63;;;;;;;19.31;100.00;100764.09;4993411;28;20343;-77
2022/07/27 06:33:05;;;;;;;9.40;2.28;;;19.20;99.90;;;19.56;100.00;100781.47;5003948;28;20223;-76
2022/07/27 06:35:34;;;;;;;8.98;2.25;;;;;;;19.75;100.00;100784.63;5005762;28;20218;-76
2022/07/27 06:38:07;;;;;;;9.70;2.20;;;19.50;99.90;;;19.89;99.87;100777.13;5006548;28;20211;-77
2022/07/27 06:40:39;;;;;;;5.75;1.42;;;;;;;19.96;100.00;100794.84;4991390;28;20212;-78
2022/07/27 06:43:07;;;;;;;5.78;1.52;;;;;;;20.05;99.68;100794.63;5010983;28;20222;-82
2022/07/27 06:45:36;;;;;;;6.18;1.67;;;;;;;19.83;99.46;100769.22;5006200;28;20204;-79
2022/07/27 06:48:04;;;;;;;4.75;1.20;;;;;;;20.01;100.00;100784.88;5009526;28;20211;-77
2022/07/27 06:50:32;;;;;;;6.40;1.55;;;;;;;20.26;98.91;100787.84;4991722;28;20265;-78
2022/07/27 06:53:02;;;;;;;8.40;1.67;;;;;;;20.13;98.16;100775.66;4981315;28;20574;-77
2022/07/27 06:55:49;;;;;;;6.18;1.65;;;19.90;99.90;;;20.23;97.31;100762.88;5002758;28;20204;-79
2022/07/27 06:58:18;;;;;;;6.47;1.80;;;20.00;99.90;;;20.33;96.56;100759.03;5007257;28;20215;-81
2022/07/27 07:00:47;;;;;;;3.40;0.90;;;;;;;20.27;97.53;100757.38;5011867;28;20208;-74
2022/07/27 07:03:16;;;;;;;8.02;2.10;;;;;;;20.29;96.01;100758.22;5005736;28;20494;-76
2022/07/27 07:05:46;;;;;;;6.90;1.80;;;19.90;99.90;;;20.21;95.49;100735.16;5009666;28;20227;-77
2022/07/27 07:08:14;;;;;;;6.97;1.75;;;;;;;20.07;95.70;100725.66;5000347;28;20204;-77
2022/07/27 07:10:44;;;;;;;8.95;2.22;;;20.00;99.90;;;20.24;94.40;100733.28;5010205;28;20227;-78
2022/07/27 07:13:14;;;;;;;7.20;1.83;;;;;;;20.33;94.37;100741.09;4996693;28;20220;-82
2022/07/27 07:15:43;;;;;;;6.82;1.70;;;;;;;20.36;94.90;100749.09;5007420;28;20207;-77
2022/07/27 07:18:13;;;;;;;1.35;0.43;;;20.20;99.90;;;20.39;93.77;100749.03;5006854;28;20207;-75
2022/07/27 07:20:41;;;;;;;5.95;1.50;;;;;;;20.21;94.23;100722.63;4994544;28;20204;-74
2022/07/27 07:23:11;;;;;;;10.95;2.63;;;;;;;20.29;94.56;100738.53;5008096;28;20235;-79
2022/07/27 07:25:40;;;;;;;6.80;1.67;;;;;;;20.62;95.22;100771.72;5010939;28;20324;-75
2022/07/27 07:28:08;;;;;;;10.82;2.47;;;;;;;20.47;94.10;100745.25;5008657;28;20699;-80
2022/07/27 07:30:37;;;;;;;7.22;1.80;;;;;;;20.34;94.13;100734.81;4990846;28;20204;-77
2022/07/27 07:33:05;;;;;;;6.63;1.60;;;20.50;99.90;;;20.53;94.34;100751.34;5008550;28;20605;-74
2022/07/27 07:35:34;;;;;;;6.80;1.55;;;;;;;20.36;93.11;100716.84;4993309;28;20211;-74
2022/07/27 07:38:02;;;;;;;4.65;1.08;;;;;;;20.63;93.06;100747.50;5011704;28;20212;-75
2022/07/27 07:40:31;;;;;;;5.25;1.20;;;;;;;20.35;91.74;100698.09;4989572;28;20574;-77
2022/07/27 07:43:14;;;;;;;10.32;2.30;;;;;;;20.21;91.53;100679.66;5005288;28;20240;-74
2022/07/27 07:45:43;;;;;;;6.85;1.60;;;;;;;20.56;92.27;100716.34;5009459;28;20210;-77
2022/07/27 07:48:21;;;;;;;9.80;2.20;;;20.30;99.90;;;20.73;92.10;100732.00;5003453;28;20203;-81
2022/07/27 07:50:51;;;;;;;11.77;2.70;;;;;;;20.64;91.57;100714.31;4991985;28;20267;-76
2022/07/27 07:53:22;;;;;;;9.95;2.25;;;20.60;99.90;;;21.03;91.99;100747.28;4984842;28;20232;-76
2022/07/27 07:55:58;;;;;;;7.28;1.58;;;20.70;99.90;;;21.00;90.48;100719.59;5007701;28;20207;-75
2022/07/27 07:58:27;;;;;;;5.97;1.33;;;;;;;20.93;89.74;100697.41;5009899;28;20222;-76
2022/07/27 08:00:55;;;;;;;8.63;1.98;;;;;;;20.92;88.97;100686.69;5007672;28;20232;-77
2022/07/27 08:03:24;;;;;;;9.25;2.08;;;;;;;21.07;88.18;100678.16;4984059;28;20232;-77
2022/07/27 08:05:53;;;;;;;4.55;1.02;;;;;;;21.02;87.34;100663.97;5007952;28;20215;-75
2022/07/27 08:08:21;;;;;;;8.32;1.88;;;;;;;21.06;86.07;100660.25;5005504;28;20204;-81
2022/07/27 08:10:52;;;;;;;8.10;1.85;;;;;;;21.02;86.93;100659.47;5005907;28;20585;-80
2022/07/27 08:13:20;;;;;;;4.57;1.00;;;;;;;20.97;88.18;100660.53;5009643;28;20230;-77
2022/07/27 08:15:51;;;;;;;5.00;1.08;;;20.80;99.90;;;20.93;88.22;100664.25;5010973;28;20660;-83
2022/07/27 08:18:20;;;;;;;7.93;1.70;;;;;;;21.03;88.66;100674.69;5008202;28;20203;-79
2022/07/27 08:20:48;;;;;;;11.27;2.35;;;;;;;21.11;88.08;100679.84;5008606;28;20223;-78
2022/07/27 08:23:17;;;;;;;12.75;2.72;;;;;;;20.78;86.73;100631.50;5002934;28;20232;-79
2022/07/27 08:25:46;;;;;;;5.38;1.17;;;;;;;20.73;87.44;100628.06;5007712;28;20208;-74
2022/07/27 08:28:15;;;;;;;15.68;3.22;;;20.70;99.90;;;20.95;87.46;100655.22;5005509;28;20220;-81
2022/07/27 08:30:45;;;;;;;9.95;2.22;;;;;;;21.03;86.34;100644.22;4987647;28;20227;-78
2022/07/27 08:33:13;;;;;;;11.40;2.30;;;;;;;21.18;86.44;100654.50;4984701;28;20243;-74
2022/07/27 08:35:43;;;;;;;6.93;1.45;;;;;;;21.31;85.48;100650.53;5006923;28;20200;-78
2022/07/27 08:38:11;;;;;;;7.50;1.88;;;;;;;20.92;86.22;100614.09;5008471;28;20208;-80
2022/07/27 08:40:40;;;;;;;9.30;2.33;;;;;;;21.41;87.13;100680.72;5004903;28;20202;-78
2022/07/27 08:43:16;;;;;;;6.15;1.58;;;21.30;99.90;;;21.53;87.68;100690.22;5006973;28;20239;-75
2022/07/27 08:46:00;;;;;;;12.10;2.90;;;21.20;99.90;;;21.19;86.48;100636.56;5006634;28;20215;-75
2022/07/27 08:48:31;;;;;;;7.70;1.90;;;;;;;21.05;86.61;100623.53;4988693;28;20687;-74
2022/07/27 08:51:00;;;;;;;7.57;1.80;;;;;;;21.60;86.71;100681.00;4992467;28;20215;-78
2022/07/27 08:53:31;;;;;;;8.75;1.92;;;21.40;99.90;;;21.77;86.50;100684.03;4991523;28;20220;-75
2022/07/27 08:56:21;;;;;;;7.55;1.83;;;21.50;99.90;;;21.81;85.09;100655.19;4992675;28;20211;-80
2022/07/27 08:58:49;;;;;;;9.93;2.10;;;;;;;21.59;84.83;100622.75;5007330;28;20215;-77
2022/07/27 09:01:18;;;;;;;16.77;3.17;;;;;;;21.78;84.49;100642.72;4987054;28;20226;-81
2022/07/27 09:03:47;;;;;;;10.05;2.00;;;;;;;22.34;83.84;100675.84;4988802;28;20264;-77
2022/07/27 09:06:47;;;;;;;7.63;1.50;;;22.20;99.90;;;22.59;82.98;100650.69;5004887;28;20204;-75
2022/07/27 09:09:21;;;;;;;17.52;3.35;;;;;;;21.74;82.71;100552.22;5002688;28;20652;-80
2022/07/27 09:12:10;;;;;;;18.63;3.45;;;21.70;99.90;;;21.82;84.35;100586.97;5002968;28;20223;-81
2022/07/27 09:14:40;;;;;;;14.35;2.70;;;21.90;99.90;;;21.93;83.59;100603.63;4986752;28;20242;-78
2022/07/27 09:17:26;;;;;;;11.07;2.08;;;21.90;99.90;;;22.05;83.45;100611.31;5006942;28;20207;-78
2022/07/27 09:20:17;;;;;;;13.85;2.75;;;21.80;99.90;;;21.78;82.39;100553.00;4988032;28;20215;-79
2022/07/27 09:22:55;;;;;;;19.75;3.80;;;21.90;99.90;;;22.18;82.68;100592.91;5005403;28;20696;-76
2022/07/27 09:25:33;;;;;;;6.63;1.33;;;21.90;99.90;;;21.97;81.56;100555.00;5004018;28;20686;-74
2022/07/27 09:28:29;;;;;;;10.63;2.05;;;21.80;99.90;;;21.74;81.92;100517.25;5005955;28;20208;-74
2022/07/27 09:31:12;;;;;;;9.02;1.77;;;21.90;99.90;;;22.12;82.65;100568.91;5004934;28;20208;-74
2022/07/27 09:33:50;;;;;;;10.27;1.95;;;22.10;99.90;;;22.18;82.79;100576.75;5007726;28;20215;-78
2022/07/27 09:36:21;;;;;;;28.35;5.40;;;22.20;99.90;;;22.33;82.31;100584.28;5007826;28;20222;-77
2022/07/27 09:39:05;;;;;;;18.73;3.65;;;22.40;99.90;;;22.66;81.63;100603.69;5006688;28;20208;-76
2022/07/27 09:41:48;;;;;;;18.42;3.40;;;22.60;99.90;;;22.70;80.17;100583.75;5002739;28;20214;-78
2022/07/27 09:44:17;;;;;;;40.38;7.43;;;;;;;22.65;81.74;100575.84;5000797;28;20250;-78
2022/07/27 09:47:25;;;;;;;14.45;2.90;;;22.80;99.90;;;22.77;79.53;100558.31;4991657;28;20695;-80
2022/07/27 09:49:58;;;;;;;10.75;2.05;;;23.00;99.90;;;22.76;79.18;100548.47;5004583;28;20207;-77
2022/07/27 09:52:29;;;;;;;17.13;5.15;;;22.70;99.90;;;22.56;80.47;100526.81;4988282;28;20207;-79
2022/07/27 09:55:05;;;;;;;17.95;3.33;;;22.80;99.90;;;22.82;80.29;100558.19;5004719;28;20227;-80
2022/07/27 09:57:53;;;;;;;17.80;3.45;;;22.90;99.90;;;22.56;80.35;100510.66;4991491;28;20199;-76
2022/07/27 10:00:25;;;;;;;12.48;2.28;;;23.10;99.90;;;22.91;80.03;100553.28;5009776;28;20207;-76
2022/07/27 10:02:55;;;;;;;25.17;4.80;;;;;;;22.80;78.73;100507.00;4999978;28;20228;-77
2022/07/27 10:05:23;;;;;;;11.23;2.20;;;;;;;22.66;79.66;100502.13;5022922;28;20218;-79
2022/07/27 10:07:53;;;;;;;13.45;2.42;;;22.70;99.90;;;22.61;78.85;100482.56;5008023;28;20208;-79
2022/07/27 10:10:22;;;;;;;15.95;2.92;;;22.70;99.90;;;22.74;77.64;100482.06;4990530;28;20691;-81
2022/07/27 10:12:54;;;;;;;19.30;3.50;;;;;;;22.51;78.46;100458.75;5003589;28;20210;-79
2022/07/27 10:15:23;;;;;;;15.55;2.80;;;22.50;99.90;;;22.52;78.33;100447.03;4990824;28;20199;-76
2022/07/27 10:18:09;;;;;;;7.63;1.70;;;22.80;99.90;;;23.09;76.71;100491.44;5006526;28;20215;-78
2022/07/27 10:20:41;;;;;;;11.15;2.13;;;23.20;99.90;;;23.79;77.11;100551.47;4990426;28;20207;-77
2022/07/27 10:23:28;;;;;;;12.10;2.35;;;23.20;99.90;;;23.32;77.24;100477.88;4973294;28;20252;-80
2022/07/27 10:26:16;;;;;;;10.80;1.98;;;23.40;99.90;;;23.33;76.22;100449.06;5008232;28;20208;-81
2022/07/27 10:28:54;;;;;;;17.45;3.22;;;23.40;99.90;;;23.56;76.92;100481.41;4998784;28;20211;-75
2022/07/27 10:31:32;;;;;;;9.63;1.73;;;23.60;99.90;;;23.76;76.50;100496.72;5010308;28;20199;-79
2022/07/27 10:34:04;;;;;;;3.40;0.82;;;23.60;99.90;;;23.68;76.51;100463.78;4995889;28;20223;-75
2022/07/27 10:36:33;;;;;;;7.50;1.63;;;;;;;23.64;74.59;100425.25;5009860;28;20214;-82
2022/07/27 10:39:06;;;;;;;4.15;0.95;;;23.50;99.90;;;23.57;74.38;100404.88;5011047;28;20210;-74
2022/07/27 10:41:39;;;;;;;6.55;1.42;;;23.80;99.90;;;24.11;76.20;100490.59;4991855;28;20576;-75
2022/07/27 10:44:14;;;;;;;9.30;2.10;;;23.90;99.90;;;23.65;74.68;100402.69;5010015;28;20251;-78
2022/07/27 10:47:05;;;;;;;6.20;1.40;;;23.90;99.90;;;23.83;73.90;100407.25;5009500;28;20207;-79
2022/07/27 10:49:36;;;;;;;5.05;1.13;;;24.00;99.90;;;24.17;74.65;100448.91;4992384;28;20214;-74
2022/07/27 10:52:43;;;;;;;8.02;2.00;;;24.20;99.90;;;24.39;74.27;100444.28;4990318;28;20218;-76
2022/07/27 10:55:30;;;;;;;5.22;1.25;;;24.70;99.90;;;24.91;74.71;100489.56;4999690;28;20528;-74
2022/07/27 10:58:13;;;;;;;1.65;0.65;;;24.70;99.90;;;24.59;72.04;100375.72;5009207;28;20213;-77
2022/07/27 11:00:47;;;;;;;3.60;1.10;;;25.30;99.90;;;24.72;72.98;100400.34;5002591;28;20212;-76
2022/07/27 11:03:33;;;;;;;8.63;2.05;;;24.70;99.90;;;24.56;71.31;100330.78;4992237;28;20698;-81
2022/07/27 11:06:28;;;;;;;6.95;1.67;;;24.70;99.90;;;24.80;71.41;100353.03;5007731;28;20199;-76
2022/07/27 11:09:20;;;;;;;6.18;1.45;;;;;;;24.05;71.58;100233.38;5008428;28;20211;-77
2022/07/27 11:12:11;;;;;;;5.93;1.42;;;24.70;99.90;;;24.17;70.95;100243.56;5002198;28;20216;-80
2022/07/27 11:14:50;;;;;;;8.57;2.05;;;24.50;99.90;;;24.28;70.13;100241.22;5010350;28;20569;-78
2022/07/27 11:17:28;;;;;;;6.32;1.45;;;24.70;99.90;;;24.89;71.11;100328.22;4992984;28;20214;-75